^^
Station Historical Data
 
Daily Summary for February 19, 2019 Units:  Metric    English   Both
Next Day »
Daily Weekly Monthly Yearly Custom
  Current: High: Low: Average:
Temperature: 6.3 °C 8.4 °C 6.3 °C 7.8 °C
Dew Point: 4.1 °C 5.6 °C 4.1 °C 5.1 °C
Humidity: 86% 86% 82% 83%
Wind Speed: 0.0km/h 18.5km/h 0.0km/h 9.1km/h
Wind Gust: 0.0km/h 10.6km/h - -
WindCalm - - WSW
Pressure: 1009.8 hPa 1009.8 hPa 1007.3 hPa -
Precipitation: 0.0 mm      
Historical Graphs
 
 
Tabular Data for February 19, 2019
Time Temperature Dew Point Pressure Wind Wind Speed Wind Gust Humidity Rainfall Rate (Hourly) solar Conditions
00:04 7.9 °C 5.3 °C 1007.3 hPa SSE 9.7 km/h 1.3 km/h 84% 0.0 mm 0.00 W/m2 CLR
00:09 7.9 °C 5.4 °C 1007.4 hPa SSW 7.4 km/h 3.5 km/h 84% 0.0 mm 0.00 W/m2 CLR
00:14 8.0 °C 5.4 °C 1007.5 hPa SE 7.4 km/h 2.1 km/h 84% 0.0 mm 0.00 W/m2 CLR
00:19 8.1 °C 5.5 °C 1007.5 hPa WSW 9.7 km/h 5.3 km/h 84% 0.0 mm 0.00 W/m2 CLR
00:24 8.1 °C 5.5 °C 1007.7 hPa South 5.6 km/h 0.8 km/h 84% 0.0 mm 0.00 W/m2 CLR
00:29 8.1 °C 5.6 °C 1007.6 hPa West 7.4 km/h 4.0 km/h 84% 0.0 mm 0.00 W/m2 CLR
00:34 8.1 °C 5.6 °C 1007.7 hPa WSW 11.1 km/h 3.1 km/h 84% 0.0 mm 0.00 W/m2 CLR
00:39 8.2 °C 5.4 °C 1007.8 hPa WSW 9.3 km/h 6.0 km/h 83% 0.0 mm 0.00 W/m2 CLR
00:44 8.2 °C 5.4 °C 1007.9 hPa WSW 9.3 km/h 6.8 km/h 83% 0.0 mm 0.00 W/m2 CLR
00:49 8.2 °C 5.4 °C 1007.9 hPa West 12.9 km/h 7.6 km/h 83% 0.0 mm 0.00 W/m2 CLR
00:54 8.2 °C 5.4 °C 1007.9 hPa West 13.0 km/h 5.0 km/h 83% 0.0 mm 0.00 W/m2 CLR
00:59 8.2 °C 5.4 °C 1008.1 hPa WSW 13.0 km/h 8.0 km/h 83% 0.0 mm 0.00 W/m2 CLR
01:04 8.2 °C 5.5 °C 1008.1 hPa West 9.7 km/h 4.0 km/h 83% 0.0 mm 0.00 W/m2 CLR
01:09 8.2 °C 5.5 °C 1008.1 hPa West 14.8 km/h 4.2 km/h 83% 0.0 mm 0.00 W/m2 CLR
01:14 8.3 °C 5.6 °C 1008.1 hPa SW 11.1 km/h 4.5 km/h 83% 0.0 mm 0.00 W/m2 CLR
01:19 8.3 °C 5.6 °C 1008.1 hPa South 11.1 km/h 4.2 km/h 83% 0.0 mm 0.00 W/m2 CLR
01:24 8.3 °C 5.4 °C 1008.1 hPa SW 11.1 km/h 5.8 km/h 82% 0.0 mm 0.00 W/m2 CLR
01:29 8.3 °C 5.4 °C 1008.1 hPa WSW 9.3 km/h 6.9 km/h 82% 0.0 mm 0.00 W/m2 CLR
01:34 8.3 °C 5.4 °C 1008.2 hPa WSW 16.7 km/h 5.3 km/h 82% 0.0 mm 0.00 W/m2 CLR
01:39 8.3 °C 5.4 °C 1008.2 hPa WSW 18.5 km/h 5.1 km/h 82% 0.0 mm 0.00 W/m2 CLR
01:44 8.4 °C 5.5 °C 1008.2 hPa West 18.5 km/h 10.6 km/h 82% 0.0 mm 0.00 W/m2 CLR
01:49 8.4 °C 5.5 °C 1008.3 hPa WSW 11.3 km/h 8.7 km/h 82% 0.0 mm 0.00 W/m2 CLR
01:54 8.4 °C 5.5 °C 1008.4 hPa SSW 11.1 km/h 6.3 km/h 82% 0.0 mm 0.00 W/m2 CLR
01:59 8.4 °C 5.5 °C 1008.5 hPa WSW 9.3 km/h 3.9 km/h 82% 0.0 mm 0.00 W/m2 CLR
02:04 8.3 °C 5.4 °C 1008.6 hPa West 9.3 km/h 4.2 km/h 82% 0.0 mm 0.00 W/m2 CLR
02:09 8.3 °C 5.4 °C 1008.7 hPa WSW 7.4 km/h 6.1 km/h 82% 0.0 mm 0.00 W/m2 CLR
02:14 8.3 °C 5.4 °C 1008.7 hPa SW 11.1 km/h 9.5 km/h 82% 0.0 mm 0.00 W/m2 CLR
02:19 8.3 °C 5.6 °C 1008.7 hPa WSW 14.8 km/h 6.3 km/h 83% 0.0 mm 0.00 W/m2 CLR
02:24 8.3 °C 5.6 °C 1008.7 hPa WSW 9.3 km/h 7.1 km/h 83% 0.0 mm 0.00 W/m2 CLR
02:29 8.3 °C 5.4 °C 1008.7 hPa West 12.9 km/h 6.3 km/h 82% 0.0 mm 0.00 W/m2 CLR
02:34 8.4 °C 5.5 °C 1008.7 hPa WSW 14.8 km/h 7.2 km/h 82% 0.0 mm 0.00 W/m2 CLR
02:39 8.3 °C 5.4 °C 1008.8 hPa West 11.3 km/h 6.0 km/h 82% 0.0 mm 0.00 W/m2 CLR
02:44 8.3 °C 5.4 °C 1008.9 hPa West 8.0 km/h 3.1 km/h 82% 0.0 mm 0.00 W/m2 CLR
02:49 8.2 °C 5.3 °C 1008.8 hPa SW 13.0 km/h 6.9 km/h 82% 0.0 mm 0.00 W/m2 CLR
02:54 8.2 °C 5.3 °C 1008.8 hPa WSW 11.1 km/h 8.0 km/h 82% 0.0 mm 0.00 W/m2 CLR
02:59 8.1 °C 5.2 °C 1008.9 hPa West 14.8 km/h 4.3 km/h 82% 0.0 mm 0.00 W/m2 CLR
03:04 8.0 °C 5.1 °C 1009.0 hPa SW 9.3 km/h 6.0 km/h 82% 0.0 mm 0.00 W/m2 CLR
03:09 7.9 °C 5.1 °C 1009.0 hPa WSW 11.1 km/h 2.1 km/h 82% 0.0 mm 0.00 W/m2 CLR
03:14 7.8 °C 5.1 °C 1009.1 hPa WSW 5.6 km/h 3.2 km/h 83% 0.0 mm 0.00 W/m2 CLR
03:19 7.8 °C 5.1 °C 1009.1 hPa SW 1.9 km/h   83% 0.0 mm 0.00 W/m2 CLR
03:24 7.6 °C 4.9 °C 1009.2 hPa SW 9.3 km/h 2.3 km/h 83% 0.0 mm 0.00 W/m2 CLR
03:29 7.5 °C 4.8 °C 1009.3 hPa SW 1.9 km/h 1.8 km/h 83% 0.0 mm 0.00 W/m2 CLR
03:34 7.3 °C 4.6 °C 1009.3 hPa SW 5.6 km/h 1.0 km/h 83% 0.0 mm 0.00 W/m2 CLR
03:39 7.2 °C 4.7 °C 1009.3 hPa SW 3.7 km/h 0.3 km/h 84% 0.0 mm 0.00 W/m2 CLR
03:44 7.1 °C 4.6 °C 1009.3 hPa West 1.9 km/h 0.8 km/h 84% 0.0 mm 0.00 W/m2 CLR
03:49 6.9 °C 4.4 °C 1009.2 hPa WSW 5.6 km/h 3.2 km/h 84% 0.0 mm 0.00 W/m2 CLR
03:54 6.8 °C 4.5 °C 1009.3 hPa SSW 3.7 km/h 3.4 km/h 85% 0.0 mm 0.00 W/m2 CLR
03:59 6.8 °C 4.4 °C 1009.3 hPa WSW 7.4 km/h 4.7 km/h 85% 0.0 mm 0.00 W/m2 CLR
04:04 6.7 °C 4.3 °C 1009.3 hPa SW 9.3 km/h 5.3 km/h 85% 0.0 mm 0.00 W/m2 CLR
04:09 6.6 °C 4.2 °C 1009.4 hPa SSW 7.4 km/h 1.3 km/h 85% 0.0 mm 0.00 W/m2 CLR
04:14 6.5 °C 4.3 °C 1009.4 hPa WSW 9.3 km/h 1.4 km/h 86% 0.0 mm 0.00 W/m2 CLR
04:19 6.4 °C 4.2 °C 1009.5 hPa Calm     86% 0.0 mm 0.00 W/m2 CLR
04:24 6.3 °C 4.1 °C 1009.5 hPa WSW 3.7 km/h 1.4 km/h 86% 0.0 mm 0.00 W/m2 CLR
04:29 6.3 °C 4.1 °C 1009.5 hPa SW 5.6 km/h 0.5 km/h 86% 0.0 mm 0.00 W/m2 CLR
04:34 6.3 °C 4.1 °C 1009.7 hPa Calm   0.3 km/h 86% 0.0 mm 0.00 W/m2 CLR
04:39 6.3 °C 4.1 °C 1009.8 hPa Calm     86% 0.0 mm 0.00 W/m2 CLR
Billingham Weather Station